Time;durP1;ratioP1;P1;durP2;ratioP2;P2;SDS_P1;SDS_P2;PMS_P1;PMS_P2;Temp;Humidity;BMP_temperature;BMP_pressure;BME280_temperature;BME280_humidity;BME280_pressure;Samples;Min_cycle;Max_cycle;Signal;HPM_P1;HPM_P2
2022/01/30 00:02:15;;;;;;;33.88;7.07;;;;;;;11.35;100.00;102517.22;4992122;28;20042;-59
2022/01/30 00:04:40;;;;;;;40.38;6.80;;;;;;;11.31;100.00;102513.19;4992705;28;20482;-59
2022/01/30 00:07:06;;;;;;;29.07;5.70;;;;;;;11.15;100.00;102520.13;4992407;28;20044;-59
2022/01/30 00:09:32;;;;;;;31.40;4.55;;;;;;;10.99;100.00;102503.97;4992608;28;20038;-60
2022/01/30 00:12:01;;;;;;;35.00;5.90;;;;;;;11.05;100.00;102506.00;4993138;28;20509;-59
2022/01/30 00:14:30;;;;;;;36.10;6.25;;;;;;;11.19;100.00;102515.31;4992323;28;20065;-58
2022/01/30 00:17:02;;;;;;;53.20;7.38;;;;;;;11.01;100.00;102513.50;4992935;28;20042;-58
2022/01/30 00:19:57;;;;;;;46.10;6.82;;;;;;;11.11;100.00;102529.47;4992605;28;20050;-60
2022/01/30 00:25:16;;;;;;;38.63;5.93;;;;;;;11.23;100.00;102526.53;4956811;28;20122;-58
2022/01/30 00:28:01;;;;;;;37.08;6.68;;;;;;;11.10;100.00;102530.47;4992570;28;20125;-59
2022/01/30 00:30:33;;;;;;;39.15;4.97;;;;;;;10.95;100.00;102522.19;4992264;28;20501;-60
2022/01/30 00:32:59;;;;;;;48.95;5.47;;;;;;;10.99;100.00;102536.91;4991611;28;20050;-60
2022/01/30 00:35:24;;;;;;;38.35;5.13;;;;;;;11.08;100.00;102537.00;4992960;28;20038;-60
2022/01/30 00:37:50;;;;;;;26.55;4.10;;;;;;;10.90;100.00;102533.34;4992101;28;20042;-58
2022/01/30 00:40:16;;;;;;;47.83;8.07;;;;;;;11.02;100.00;102533.94;4991515;28;20092;-58
2022/01/30 00:42:41;;;;;;;44.17;6.40;;;;;;;10.92;100.00;102529.66;4991238;28;20276;-59
2022/01/30 00:45:07;;;;;;;31.10;5.40;;;;;;;11.18;100.00;102533.19;4990659;28;20097;-59
2022/01/30 00:47:34;;;;;;;41.92;5.82;;;;;;;11.01;100.00;102537.59;4991235;28;20334;-59
2022/01/30 00:49:59;;;;;;;31.33;4.90;;;;;;;11.01;100.00;102540.28;4991138;28;20439;-60
2022/01/30 00:52:25;;;;;;;25.60;4.63;;;;;;;10.95;100.00;102537.38;5006543;28;20491;-60
2022/01/30 00:54:50;;;;;;;30.03;5.67;;;;;;;10.57;100.00;102550.97;4990817;28;20073;-60
2022/01/30 00:57:16;;;;;;;30.83;6.47;;;;;;;10.68;100.00;102556.09;4973902;28;20050;-58
2022/01/30 00:59:41;;;;;;;37.23;6.07;;;;;;;10.85;100.00;102546.34;4989349;28;20113;-59
2022/01/30 01:02:07;;;;;;;35.27;4.33;;;;;;;10.74;100.00;102543.94;4987641;28;20038;-59
2022/01/30 01:04:32;;;;;;;26.60;3.97;;;;;;;10.72;100.00;102549.44;4989890;28;20018;-59
2022/01/30 01:06:58;;;;;;;27.67;5.10;;;;;;;10.62;100.00;102546.00;4973888;28;20499;-59
2022/01/30 01:09:31;;;;;;;26.87;4.87;;;;;;;10.74;100.00;102552.78;4989676;28;20069;-60
2022/01/30 01:25:54;;;;;;;28.60;4.65;;;;;;;10.75;100.00;102541.09;4994326;28;20065;-60
2022/01/30 01:28:20;;;;;;;30.48;5.57;;;;;;;10.61;100.00;102544.34;5008953;28;20054;-60
2022/01/30 01:30:46;;;;;;;28.98;5.47;;;;;;;10.79;100.00;102541.63;4995822;28;20050;-59
2022/01/30 01:33:13;;;;;;;30.90;5.13;;;;;;;10.54;100.00;102551.28;4994992;28;20145;-60
2022/01/30 01:35:38;;;;;;;32.67;5.70;;;;;;;10.58;100.00;102558.84;4995628;28;20109;-60
2022/01/30 01:38:09;;;;;;;39.17;5.43;;;;;;;10.52;100.00;102555.94;4995790;28;20039;-59
2022/01/30 01:40:35;;;;;;;42.88;4.32;;;;;;;10.52;100.00;102561.28;4994146;28;20061;-60
2022/01/30 01:43:02;;;;;;;22.38;4.45;;;;;;;10.53;100.00;102555.78;4994017;28;20038;-60
2022/01/30 01:45:33;;;;;;;;;;;;;;;10.45;100.00;102564.56;4995892;28;20173;-60
2022/01/30 01:48:02;;;;;;;24.92;4.03;;;;;;;10.51;100.00;102565.81;4995468;28;19924;-60
2022/01/30 01:50:43;;;;;;;38.63;4.93;;;;;;;10.58;100.00;102569.53;4994367;28;20045;-60
2022/01/30 01:53:14;;;;;;;39.42;5.50;;;;;;;10.46;100.00;102563.59;4994628;28;20137;-59
2022/01/30 01:55:43;;;;;;;31.42;5.10;;;;;;;10.37;100.00;102564.44;5010460;28;20473;-60
2022/01/30 01:58:17;;;;;;;39.08;5.00;;;;;;;10.59;100.00;102567.69;4995013;28;20038;-60
2022/01/30 02:01:02;;;;;;;26.40;4.60;;;;;;;10.57;100.00;102554.50;5010506;28;20042;-60
2022/01/30 02:03:28;;;;;;;31.70;5.72;;;;;;;10.57;100.00;102559.84;5010322;28;20129;-59
2022/01/30 02:05:58;;;;;;;35.90;4.38;;;;;;;10.35;100.00;102547.72;4993633;28;20046;-60
2022/01/30 02:24:23;;;;;;;28.00;4.82;;;;;;;10.45;100.00;102556.56;4994957;28;20129;-60
2022/01/30 02:26:49;;;;;;;36.65;5.50;;;;;;;10.43;100.00;102557.69;5009152;28;20046;-59
2022/01/30 02:29:15;;;;;;;20.65;3.03;;;;;;;10.14;100.00;102559.53;4993551;28;20033;-61
2022/01/30 02:31:42;;;;;;;29.17;5.43;;;;;;;10.14;100.00;102558.69;5009703;28;20062;-60
2022/01/30 02:34:08;;;;;;;36.50;5.40;;;;;;;9.88;100.00;102564.75;4993451;28;20041;-60
2022/01/30 02:36:51;;;;;;;45.22;5.60;;;;;;;10.23;100.00;102567.66;5009662;28;20093;-59
2022/01/30 02:39:18;;;;;;;39.53;6.28;;;;;;;10.32;100.00;102558.72;4976958;28;20122;-60
2022/01/30 02:41:44;;;;;;;35.78;5.95;;;;;;;9.86;100.00;102550.69;4994431;28;20033;-61
2022/01/30 02:46:56;;;;;;;34.65;4.57;;;;;;;10.21;100.00;102542.91;4994371;28;20066;-59
2022/01/30 02:52:02;;;;;;;39.67;4.90;;;;;;;10.09;100.00;102556.47;4992475;28;20038;-60
2022/01/30 02:54:29;;;;;;;24.95;4.60;;;;;;;10.01;100.00;102562.56;5009663;28;20058;-60
2022/01/30 02:56:55;;;;;;;28.88;4.88;;;;;;;10.17;100.00;102559.25;4994050;28;20101;-59
2022/01/30 02:59:22;;;;;;;36.55;4.38;;;;;;;10.26;100.00;102572.69;5009150;28;20049;-59
2022/01/30 03:01:48;;;;;;;22.65;4.30;;;;;;;10.24;100.00;102580.03;4976536;28;20030;-60
2022/01/30 03:04:13;;;;;;;28.10;4.20;;;;;;;10.04;100.00;102580.16;4992747;28;20039;-60
2022/01/30 03:06:39;;;;;;;23.43;4.43;;;;;;;10.29;100.00;102580.41;4994019;28;20061;-60
2022/01/30 03:09:08;;;;;;;28.90;4.45;;;;;;;10.24;100.00;102582.72;5008737;28;20399;-59
2022/01/30 03:11:35;;;;;;;30.50;4.68;;;;;;;10.24;100.00;102575.50;4992365;28;20065;-59
2022/01/30 03:14:02;;;;;;;25.07;4.03;;;;;;;10.18;100.00;102573.44;5008553;28;20046;-59
2022/01/30 03:16:27;;;;;;;;;;;;;;;10.23;100.00;102586.38;4992902;28;20042;-60
2022/01/30 03:18:53;;;;;;;23.63;3.90;;;;;;;10.29;100.00;102578.59;4973898;28;20713;-60
2022/01/30 03:21:18;;;;;;;29.87;3.87;;;;;;;9.98;100.00;102596.78;4991366;28;20034;-60
2022/01/30 03:23:44;;;;;;;39.13;5.00;;;;;;;10.36;100.00;102594.03;4992328;28;20049;-60
2022/01/30 03:26:11;;;;;;;27.02;4.10;;;;;;;10.06;100.00;102594.19;4976285;28;20092;-59
2022/01/30 03:29:04;;;;;;;23.60;5.00;;;;;;;9.61;100.00;102585.94;4985567;28;20141;-59
2022/01/30 03:31:33;;;;;;;26.58;3.38;;;;;;;10.16;100.00;102600.34;4992154;28;20042;-60
2022/01/30 03:33:58;;;;;;;26.98;3.90;;;;;;;10.00;100.00;102600.16;4990765;28;20037;-60
2022/01/30 03:36:34;;;;;;;29.52;4.82;;;;;;;9.97;100.00;102609.28;4988973;28;20072;-60
2022/01/30 03:39:02;;;;;;;37.20;5.35;;;;;;;9.88;100.00;102605.66;4991348;28;20616;-60
2022/01/30 03:41:28;;;;;;;15.15;3.33;;;;;;;10.12;100.00;102616.81;4992236;28;20041;-60
2022/01/30 03:43:54;;;;;;;14.70;2.63;;;;;;;9.95;100.00;102623.81;4991599;28;20144;-59
2022/01/30 03:46:21;;;;;;;18.17;3.05;;;;;;;10.14;100.00;102631.72;4992353;28;20455;-60
2022/01/30 03:48:46;;;;;;;16.52;2.70;;;;;;;10.06;100.00;102631.63;5008119;28;20057;-60
2022/01/30 03:51:20;;;;;;;26.55;3.40;;;;;;;9.73;100.00;102628.53;4992461;28;20045;-60
2022/01/30 03:53:46;;;;;;;20.55;2.83;;;;;;;9.93;100.00;102636.47;4993033;28;20042;-61
2022/01/30 03:56:12;;;;;;;20.83;2.80;;;;;;;10.01;100.00;102633.91;4991845;28;20045;-59
2022/01/30 03:58:38;;;;;;;17.17;4.20;;;;;;;9.95;100.00;102639.84;4991309;28;20057;-59
2022/01/30 04:01:08;;;;;;;24.50;3.88;;;;;;;9.71;100.00;102641.19;4992124;28;20497;-59
2022/01/30 04:03:36;;;;;;;15.55;2.83;;;;;;;9.55;100.00;102647.97;4975808;28;20074;-59
2022/01/30 04:06:04;;;;;;;19.98;3.03;;;;;;;10.02;100.00;102656.97;4975606;28;20049;-60
2022/01/30 04:08:29;;;;;;;14.10;2.40;;;;;;;9.84;100.00;102660.41;4991820;28;20117;-60
2022/01/30 04:11:02;;;;;;;23.90;2.65;;;;;;;9.80;100.00;102659.00;4991088;28;20388;-60
2022/01/30 04:13:34;;;;;;;23.63;3.22;;;;;;;9.42;100.00;102650.94;4991697;28;20622;-60
2022/01/30 04:16:15;;;;;;;20.88;2.83;;;;;;;9.61;100.00;102655.41;4992246;28;20081;-59
2022/01/30 04:19:01;;;;;;;15.38;2.97;;;;;;;9.90;100.00;102662.47;4964643;28;20070;-59
2022/01/30 04:21:45;;;;;;;21.63;2.30;;;;;;;9.76;100.00;102660.28;4993101;28;20104;-60
2022/01/30 04:24:38;;;;;;;21.42;2.25;;;;;;;9.49;100.00;102651.22;4989127;28;20054;-58
2022/01/30 04:27:21;;;;;;;20.70;3.03;;;;;;;9.77;100.00;102653.97;4991620;28;20137;-59
2022/01/30 04:30:05;;;;;;;19.13;2.50;;;;;;;9.76;100.00;102660.28;5008096;28;20058;-59
2022/01/30 04:32:36;;;;;;;17.65;2.20;;;;;;;9.57;100.00;102663.84;4993158;28;20133;-60
2022/01/30 04:35:35;;;;;;;14.05;2.30;;;;;;;9.66;100.00;102673.69;4959988;28;20090;-60
2022/01/30 04:53:12;;;;;;;14.80;3.33;;;;;;;9.52;100.00;102688.31;4994501;28;20090;-60
2022/01/30 04:58:51;;;;;;;19.80;2.35;;;;;;;9.82;100.00;102689.09;4952877;28;20097;-60
2022/01/30 05:07:28;;;;;;;18.63;2.47;;;;;;;9.96;100.00;102706.50;4996195;28;20050;-59
2022/01/30 05:10:14;;;;;;;21.10;3.03;;;;;;;9.83;100.00;102706.81;4984798;28;20060;-59
2022/01/30 05:12:56;;;;;;;14.27;2.42;;;;;;;9.63;100.00;102716.72;4996170;28;20093;-59
2022/01/30 05:15:23;;;;;;;21.65;2.15;;;;;;;9.68;100.00;102702.91;4995000;28;20050;-60
2022/01/30 05:18:07;;;;;;;18.45;3.15;;;;;;;9.71;100.00;102702.66;4981328;28;20138;-59
2022/01/30 05:20:56;;;;;;;15.02;2.47;;;;;;;9.51;100.00;102707.16;4990057;28;20454;-60
2022/01/30 05:23:35;;;;;;;18.55;2.80;;;;;;;9.52;100.00;102701.69;4980754;28;20051;-59
2022/01/30 05:26:13;;;;;;;12.65;2.75;;;;;;;9.67;100.00;102701.22;4994630;28;20049;-59
2022/01/30 05:28:51;;;;;;;11.93;2.03;;;;;;;9.41;100.00;102708.00;5010372;28;20572;-60
2022/01/30 05:31:47;;;;;;;16.00;2.97;;;;;;;9.38;100.00;102712.78;4959685;28;20558;-60
2022/01/30 05:34:31;;;;;;;29.95;3.08;;;;;;;9.31;100.00;102704.50;4995716;28;20057;-61
2022/01/30 05:37:17;;;;;;;20.13;3.50;;;;;;;9.50;100.00;102717.00;4994161;28;20066;-59
2022/01/30 05:40:01;;;;;;;20.00;2.45;;;;;;;9.41;100.00;102715.16;4994801;28;20089;-61
2022/01/30 05:42:51;;;;;;;15.18;3.47;;;;;;;9.42;100.00;102708.84;4986926;28;20054;-59
2022/01/30 05:45:46;;;;;;;21.63;3.03;;;;;;;9.53;100.00;102718.53;4979797;28;20495;-60
2022/01/30 05:48:16;;;;;;;20.63;2.33;;;;;;;9.27;100.00;102711.97;4995296;28;20058;-60
2022/01/30 05:50:58;;;;;;;31.40;2.90;;;;;;;9.46;100.00;102718.28;4993782;28;20783;-61
2022/01/30 05:53:50;;;;;;;16.63;2.63;;;;;;;8.96;100.00;102720.06;4984418;28;20050;-60
2022/01/30 05:56:18;;;;;;;40.78;3.80;;;;;;;8.90;100.00;102715.28;4993954;28;20046;-59
2022/01/30 05:58:44;;;;;;;30.40;3.90;;;;;;;8.98;100.00;102723.44;4993751;28;20040;-59
2022/01/30 06:01:29;;;;;;;17.80;3.00;;;;;;;8.98;100.00;102725.28;4995163;28;20046;-60
2022/01/30 06:04:00;;;;;;;14.45;2.70;;;;;;;9.08;100.00;102730.63;4993926;28;20423;-59
2022/01/30 06:06:26;;;;;;;26.50;2.67;;;;;;;9.13;100.00;102733.72;4993913;28;20042;-59
2022/01/30 06:09:18;;;;;;;24.88;3.25;;;;;;;9.03;100.00;102742.56;4993695;28;20085;-59
2022/01/30 06:11:50;;;;;;;24.77;3.22;;;;;;;9.07;100.00;102751.13;4969484;28;20070;-60
2022/01/30 06:14:20;;;;;;;20.25;3.08;;;;;;;8.83;100.00;102738.19;5010016;28;20116;-60
2022/01/30 06:16:45;;;;;;;21.52;5.45;;;;;;;8.88;100.00;102733.25;4993772;28;20065;-60
2022/01/30 06:19:40;;;;;;;27.88;3.05;;;;;;;8.84;100.00;102734.53;4941975;28;20146;-60
2022/01/30 06:22:32;;;;;;;21.55;5.32;;;;;;;8.48;100.00;102734.97;4991730;28;20046;-61
2022/01/30 06:25:18;;;;;;;25.40;4.10;;;;;;;8.62;100.00;102733.75;4973537;28;20054;-59
2022/01/30 06:28:02;;;;;;;14.55;3.17;;;;;;;8.70;100.00;102738.44;4993463;28;20108;-61
2022/01/30 06:30:49;;;;;;;24.67;3.58;;;;;;;8.77;100.00;102738.72;4964159;28;20050;-60
2022/01/30 06:33:33;;;;;;;17.08;3.20;;;;;;;8.80;100.00;102741.94;4995031;28;20513;-60
2022/01/30 06:36:24;;;;;;;25.15;3.58;;;;;;;8.85;100.00;102734.38;4994551;28;20490;-59
2022/01/30 06:39:07;;;;;;;32.33;6.13;;;;;;;8.97;100.00;102737.75;4993255;28;20101;-60
2022/01/30 06:41:43;;;;;;;28.92;5.57;;;;;;;9.00;100.00;102742.00;4980387;28;20042;-59
2022/01/30 06:44:12;;;;;;;28.10;4.70;;;;;;;9.03;100.00;102757.72;4977494;28;20057;-60
2022/01/30 06:47:01;;;;;;;24.13;3.55;;;;;;;8.86;100.00;102759.25;4965676;28;20125;-60
2022/01/30 06:49:41;;;;;;;23.83;4.03;;;;;;;8.84;100.00;102761.22;4994527;28;20459;-60
2022/01/30 06:52:27;;;;;;;25.55;4.68;;;;;;;8.54;100.00;102765.63;4994167;28;20494;-60
2022/01/30 06:55:22;;;;;;;24.35;3.50;;;;;;;8.47;100.00;102767.94;4993818;28;20495;-60
2022/01/30 06:58:06;;;;;;;22.48;3.25;;;;;;;8.68;100.00;102780.41;4993895;28;20144;-60
2022/01/30 07:00:50;;;;;;;34.20;5.82;;;;;;;8.31;100.00;102790.59;4994317;28;20407;-59
2022/01/30 07:03:54;;;;;;;21.05;3.38;;;;;;;8.70;100.00;102781.09;4972589;28;20047;-60
2022/01/30 07:06:45;;;;;;;30.05;3.63;;;;;;;8.60;100.00;102795.22;4972741;28;20082;-60
2022/01/30 07:09:11;;;;;;;40.05;4.07;;;;;;;8.76;100.00;102793.91;4978304;28;20440;-60
2022/01/30 07:11:36;;;;;;;17.63;3.77;;;;;;;8.74;100.00;102796.69;4992187;28;20112;-59
2022/01/30 07:14:02;;;;;;;23.52;3.28;;;;;;;8.71;100.00;102794.28;4991803;28;20640;-59
2022/01/30 07:16:27;;;;;;;28.03;4.33;;;;;;;8.59;100.00;102795.38;4993792;28;20486;-60
2022/01/30 07:18:53;;;;;;;29.20;4.10;;;;;;;8.59;100.00;102804.22;4993958;28;20283;-59
2022/01/30 07:21:19;;;;;;;27.23;4.82;;;;;;;8.52;100.00;102800.41;4990578;28;20237;-60
2022/01/30 07:23:45;;;;;;;32.55;4.90;;;;;;;8.49;100.00;102797.13;4992528;28;20050;-61
2022/01/30 07:26:10;;;;;;;21.15;3.67;;;;;;;8.56;100.00;102804.47;4991858;28;20073;-59
2022/01/30 07:28:36;;;;;;;21.70;4.13;;;;;;;8.60;100.00;102800.56;4993422;28;20517;-59
2022/01/30 07:31:02;;;;;;;23.70;3.30;;;;;;;8.55;100.00;102807.31;4992101;28;20038;-61
2022/01/30 07:33:27;;;;;;;27.40;5.18;;;;;;;8.30;100.00;102809.38;4993603;28;20284;-60
2022/01/30 07:35:55;;;;;;;23.37;4.10;;;;;;;8.43;100.00;102811.84;4993753;28;20125;-62
2022/01/30 07:38:21;;;;;;;32.30;4.10;;;;;;;8.53;100.00;102828.75;4992063;28;20042;-61
2022/01/30 07:40:48;;;;;;;24.02;4.28;;;;;;;8.27;100.00;102837.16;4992958;28;20053;-60
2022/01/30 07:43:13;;;;;;;;;;;;;;;8.37;100.00;102823.88;4992402;28;20117;-61
2022/01/30 07:45:48;;;;;;;24.85;4.45;;;;;;;8.30;100.00;102826.22;4992040;28;19913;-60
2022/01/30 07:48:15;;;;;;;25.38;5.65;;;;;;;8.40;100.00;102820.09;4991732;28;20048;-59
2022/01/30 07:50:41;;;;;;;32.53;4.10;;;;;;;8.37;100.00;102825.69;4991025;28;20406;-60
2022/01/30 07:53:07;;;;;;;22.90;3.67;;;;;;;8.37;100.00;102826.53;4998608;28;20054;-59
2022/01/30 07:55:32;;;;;;;34.00;4.13;;;;;;;8.42;100.00;102828.78;4990599;28;20034;-60
2022/01/30 07:57:58;;;;;;;14.65;2.70;;;;;;;8.58;100.00;102831.88;4991594;28;20125;-60
2022/01/30 08:00:24;;;;;;;27.50;3.67;;;;;;;8.66;100.00;102831.19;4991788;28;20836;-59
2022/01/30 08:02:50;;;;;;;;;;;;;;;8.66;100.00;102835.72;4999189;28;20084;-60
2022/01/30 08:05:16;;;;;;;22.13;3.90;;;;;;;8.80;100.00;102839.84;4990346;28;19922;-60
2022/01/30 08:07:41;;;;;;;22.83;3.58;;;;;;;8.91;100.00;102837.06;4990484;28;20045;-60
2022/01/30 08:10:07;;;;;;;29.58;6.13;;;;;;;8.67;100.00;102838.22;4991678;28;20105;-60
2022/01/30 08:12:33;;;;;;;24.50;4.03;;;;;;;8.67;100.00;102832.06;4991535;28;20054;-60
2022/01/30 08:14:58;;;;;;;21.33;4.82;;;;;;;8.94;100.00;102828.78;4992655;28;20049;-60
2022/01/30 08:17:24;;;;;;;24.30;4.32;;;;;;;8.83;100.00;102835.06;4992753;28;20105;-60
2022/01/30 08:19:51;;;;;;;32.58;4.05;;;;;;;8.89;100.00;102833.69;4992967;28;20117;-60
2022/01/30 08:22:17;;;;;;;24.30;3.83;;;;;;;8.91;100.00;102846.91;4992419;28;20118;-60
2022/01/30 08:24:42;;;;;;;28.23;4.03;;;;;;;8.81;100.00;102834.34;4991519;28;20038;-61
2022/01/30 08:27:08;;;;;;;38.63;3.95;;;;;;;8.87;100.00;102839.13;4996242;28;20042;-60
2022/01/30 08:29:34;;;;;;;34.63;5.35;;;;;;;9.04;100.00;102837.66;4996667;28;20034;-59
2022/01/30 08:32:00;;;;;;;24.20;5.30;;;;;;;9.44;100.00;102848.41;4996610;28;20045;-59
2022/01/30 08:34:26;;;;;;;31.40;5.72;;;;;;;9.28;100.00;102840.94;4996261;28;20042;-59
2022/01/30 08:36:52;;;;;;;17.65;3.30;;;;;;;9.19;100.00;102853.28;4996304;28;20045;-60
2022/01/30 08:39:18;;;;;;;32.92;5.53;;;;;;;9.55;100.00;102859.00;4995758;28;20383;-59
2022/01/30 08:41:44;;;;;;;29.55;4.43;;;;;;;9.77;100.00;102862.38;4978948;28;20077;-60
2022/01/30 08:44:10;;;;;;;40.97;6.55;;;;;;;9.82;100.00;102860.13;4994810;28;20077;-59
2022/01/30 08:46:35;;;;;;;26.63;4.03;;;;;;;9.68;100.00;102858.72;4995369;28;20573;-60
2022/01/30 08:49:01;;;;;;;20.92;4.20;;;;;;;9.86;100.00;102872.22;4978845;28;20509;-59
2022/01/30 08:51:26;;;;;;;29.83;4.47;;;;;;;9.45;100.00;102871.47;4995199;28;20039;-59
2022/01/30 08:53:52;;;;;;;28.47;5.10;;;;;;;10.09;100.00;102874.59;4996430;28;20084;-59
2022/01/30 08:56:21;;;;;;;31.43;4.97;;;;;;;10.00;100.00;102872.78;4995673;28;20035;-59
2022/01/30 08:58:47;;;;;;;31.50;5.13;;;;;;;10.33;100.00;102868.81;4995856;28;20276;-59
2022/01/30 09:01:13;;;;;;;23.17;4.75;;;;;;;10.48;100.00;102871.03;4997163;28;20078;-59
2022/01/30 09:03:39;;;;;;;28.92;4.63;;;;;;;10.44;100.00;102870.50;4994773;28;20062;-59
2022/01/30 09:06:05;;;;;;;26.23;4.10;;;;;;;10.29;100.00;102879.94;4995871;28;20047;-60
2022/01/30 09:08:30;;;;;;;26.20;5.00;;;;;;;10.70;100.00;102890.41;4995451;28;20475;-60
2022/01/30 09:10:57;;;;;;;26.67;4.38;;;;;;;11.47;100.00;102895.56;4993282;28;20065;-59
2022/01/30 09:13:23;;;;;;;;;;;;;;;11.46;96.78;102891.19;4995524;28;20500;-59
2022/01/30 09:15:50;;;;;;;31.97;4.57;;;;;;;11.60;94.20;102896.03;4995514;28;20000;-58
2022/01/30 09:18:17;;;;;;;36.35;6.47;;;;;;;11.72;95.86;102893.97;4992953;28;20046;-58
2022/01/30 09:20:43;;;;;;;31.75;4.72;;;;;;;12.67;84.00;102894.41;4995392;28;20042;-60
2022/01/30 09:23:10;;;;;;;25.77;5.00;;;;;;;13.34;78.33;102899.06;4994463;28;20042;-60
2022/01/30 09:25:37;;;;;;;28.70;5.13;;;;;;;13.56;73.48;102904.88;4992790;28;20045;-60
2022/01/30 09:28:03;;;;;;;27.17;5.65;;;;;;;14.03;69.36;102908.78;5002170;28;20042;-60
2022/01/30 09:30:29;;;;;;;27.88;4.80;;;;;;;14.32;68.31;102912.81;4986486;28;20043;-60
2022/01/30 09:32:55;;;;;;;26.58;5.53;;;;;;;14.44;66.99;102908.75;4992815;28;20088;-60
2022/01/30 09:35:20;;;;;;;35.55;6.22;;;;;;;15.29;62.57;102919.97;4995003;28;20038;-60
2022/01/30 09:37:46;;;;;;;23.03;4.10;;;;;;;15.70;59.65;102923.47;4993347;28;20552;-61
2022/01/30 09:40:14;;;;;;;24.75;5.20;;;;;;;15.49;59.31;102927.63;4994734;28;20049;-61
2022/01/30 09:42:45;;;;;;;33.47;5.50;;;;;;;14.73;60.23;102926.22;5001261;28;20038;-60
2022/01/30 09:45:13;;;;;;;33.33;5.30;;;;;;;16.51;55.77;102935.63;5001777;28;20280;-60
2022/01/30 09:47:40;;;;;;;26.23;4.73;;;;;;;16.51;54.33;102935.63;4995270;28;20296;-59
2022/01/30 09:50:07;;;;;;;42.77;7.47;;;;;;;16.31;54.12;102936.16;4994858;28;20295;-60
2022/01/30 09:52:32;;;;;;;28.20;5.37;;;;;;;16.91;52.70;102937.03;4994503;28;20279;-59
2022/01/30 09:54:58;;;;;;;27.58;5.70;;;;;;;17.16;50.99;102931.38;4994334;28;20621;-59
2022/01/30 09:57:24;;;;;;;18.83;4.40;;;;;;;17.41;50.96;102944.56;4993139;28;20081;-59
2022/01/30 09:59:50;;;;;;;25.30;5.60;;;;;;;17.90;48.53;102942.19;4994653;28;20057;-59
2022/01/30 10:02:15;;;;;;;30.20;5.93;;;;;;;17.47;48.66;102945.69;4992009;28;20054;-60
2022/01/30 10:04:41;;;;;;;29.30;5.28;;;;;;;18.37;46.44;102949.94;4994465;28;20169;-60
2022/01/30 10:07:18;;;;;;;21.52;4.80;;;;;;;18.28;45.25;102954.63;5001672;28;20045;-59
2022/01/30 10:09:46;;;;;;;31.63;5.43;;;;;;;17.48;46.69;102960.88;4992442;28;20045;-59
2022/01/30 10:12:19;;;;;;;25.90;5.03;;;;;;;17.90;46.19;102959.25;4992957;28;20379;-60
2022/01/30 10:15:11;;;;;;;30.50;6.00;;;;;;;18.09;46.33;102966.94;4992368;28;20272;-59
2022/01/30 10:17:39;;;;;;;27.43;5.10;;;;;;;18.67;43.73;102971.38;4993221;28;20056;-60
2022/01/30 10:20:05;;;;;;;31.37;5.40;;;;;;;18.19;43.45;102962.88;4992096;28;20116;-59
2022/01/30 10:22:31;;;;;;;24.48;5.20;;;;;;;19.18;44.51;102967.56;4993082;28;20569;-61
2022/01/30 10:24:57;;;;;;;19.20;4.97;;;;;;;19.41;43.29;102966.41;4991853;28;20038;-61
2022/01/30 10:27:26;;;;;;;29.23;5.10;;;;;;;19.09;42.50;102966.88;4991628;28;20125;-60
2022/01/30 10:30:05;;;;;;;25.07;5.33;;;;;;;20.39;40.78;102975.97;4993226;28;20037;-60
2022/01/30 10:32:31;;;;;;;19.50;4.10;;;;;;;21.28;37.95;102986.47;4992921;28;20128;-60
2022/01/30 10:34:58;;;;;;;32.20;5.90;;;;;;;21.63;36.72;102975.19;4991993;28;20133;-59
2022/01/30 10:37:24;;;;;;;20.40;4.60;;;;;;;21.92;36.45;102978.41;5008200;28;20064;-60
2022/01/30 10:40:14;;;;;;;19.48;4.38;;;;;;;20.96;38.06;102980.09;4992813;28;20471;-60
2022/01/30 10:42:46;;;;;;;25.77;5.50;;;;;;;20.45;38.57;102980.56;4992833;28;20030;-60
2022/01/30 10:45:33;;;;;;;27.97;5.83;;;;;;;19.61;41.65;102970.00;4993542;28;20038;-60
2022/01/30 10:48:10;;;;;;;20.63;4.53;;;;;;;19.99;40.75;102973.22;4994179;28;20088;-60
2022/01/30 10:50:43;;;;;;;25.70;6.03;;;;;;;19.25;39.93;102972.97;4993321;28;20039;-59
2022/01/30 10:53:24;;;;;;;30.37;4.87;;;;;;;18.85;42.64;102965.44;4994271;28;20507;-59
2022/01/30 10:55:50;;;;;;;35.83;5.93;;;;;;;18.54;42.56;102959.41;4994203;28;20142;-59
2022/01/30 10:58:21;;;;;;;26.37;6.07;;;;;;;19.10;42.07;102955.00;4994377;28;20120;-59
2022/01/30 11:00:54;;;;;;;29.57;5.13;;;;;;;18.69;42.25;102945.78;4993728;28;20058;-59
2022/01/30 11:03:44;;;;;;;31.93;5.43;;;;;;;19.47;42.96;102941.97;4992463;28;20038;-61
2022/01/30 11:06:13;;;;;;;24.07;4.10;;;;;;;18.26;45.01;102944.00;4993775;28;20084;-60
2022/01/30 11:08:42;;;;;;;23.10;4.57;;;;;;;17.53;45.65;102939.53;4993550;28;20040;-60
2022/01/30 11:11:30;;;;;;;34.87;5.53;;;;;;;17.24;47.18;102929.63;4991290;28;20058;-60
2022/01/30 11:14:15;;;;;;;27.83;5.33;;;;;;;18.95;45.23;102927.13;5009015;28;20046;-59
2022/01/30 11:19:23;;;;;;;27.87;5.80;;;;;;;17.72;46.59;102927.25;4978007;28;20038;-60
2022/01/30 11:21:51;;;;;;;30.47;4.97;;;;;;;16.72;49.90;102935.75;4994164;28;20031;-61
2022/01/30 11:24:19;;;;;;;27.10;4.83;;;;;;;16.97;53.77;102938.16;4990947;28;20272;-62
2022/01/30 11:26:46;;;;;;;23.07;4.37;;;;;;;16.65;65.98;102944.78;4992402;28;20267;-60
2022/01/30 11:29:14;;;;;;;30.83;4.97;;;;;;;16.13;52.75;102936.47;4993226;28;20319;-60
2022/01/30 11:31:40;;;;;;;31.20;4.97;;;;;;;18.28;44.67;102927.56;4993454;28;20330;-60
2022/01/30 11:34:06;;;;;;;;;;;;;;;20.02;42.90;102935.63;4994021;28;20280;-60
2022/01/30 11:36:34;;;;;;;18.07;4.30;;;;;;;21.26;38.97;102938.75;4989372;28;19914;-60
2022/01/30 11:39:01;;;;;;;21.10;5.23;;;;;;;21.55;41.59;102934.63;4992684;28;20050;-61
2022/01/30 11:41:30;;;;;;;30.67;4.67;;;;;;;21.81;37.40;102938.25;4988401;28;20053;-60
2022/01/30 11:44:17;;;;;;;21.67;4.60;;;;;;;22.74;36.94;102938.50;4992792;28;20038;-60
2022/01/30 11:46:52;;;;;;;27.73;4.80;;;;;;;24.13;32.95;102948.81;4992279;28;20482;-60
2022/01/30 11:49:18;;;;;;;22.90;4.47;;;;;;;24.65;33.39;102949.97;4999403;28;20042;-61
2022/01/30 11:51:51;;;;;;;28.92;5.40;;;;;;;24.92;30.86;102949.50;4988124;28;20406;-60
2022/01/30 11:54:37;;;;;;;29.60;5.63;;;;;;;23.51;31.24;102939.00;4992363;28;20554;-60
2022/01/30 11:57:43;;;;;;;25.38;4.28;;;;;;;22.19;36.61;102937.34;4992608;28;20056;-60
2022/01/30 12:00:38;;;;;;;29.17;5.13;;;;;;;22.26;35.20;102936.44;4992792;28;20047;-60
2022/01/30 12:03:26;;;;;;;18.03;4.53;;;;;;;20.68;38.90;102949.38;4993247;28;20380;-60
2022/01/30 12:05:54;;;;;;;23.93;4.23;;;;;;;19.16;43.64;102931.66;4992608;28;20034;-62
2022/01/30 12:08:45;;;;;;;23.80;4.80;;;;;;;17.91;42.17;102931.16;4991944;28;20030;-60
2022/01/30 12:11:37;;;;;;;19.33;4.57;;;;;;;17.92;45.44;102937.44;4992404;28;20388;-60
2022/01/30 12:14:12;;;;;;;29.33;6.23;;;;;;;17.94;42.64;102934.50;4992850;28;20037;-60
2022/01/30 12:17:02;;;;;;;24.65;5.45;;;;;;;20.32;37.00;102929.78;4992784;28;20486;-60
2022/01/30 12:19:31;;;;;;;22.00;5.07;;;;;;;22.05;34.81;102936.63;4993840;28;20042;-61
2022/01/30 12:22:20;;;;;;;32.87;5.20;;;;;;;23.23;32.31;102940.41;4992604;28;20137;-60
2022/01/30 12:24:48;;;;;;;31.07;6.47;;;;;;;24.13;30.27;102940.59;4981921;28;20125;-59
2022/01/30 12:27:14;;;;;;;24.67;4.10;;;;;;;22.74;31.72;102941.22;4992565;28;20037;-60
2022/01/30 12:29:51;;;;;;;;;;;;;;;21.18;33.11;102929.78;4992645;28;20058;-60
2022/01/30 12:32:28;;;;;;;25.93;6.60;;;;;;;20.44;35.45;102919.09;4993013;28;19917;-59
2022/01/30 12:34:57;;;;;;;28.80;5.47;;;;;;;19.61;36.78;102915.72;4974610;28;20034;-60
2022/01/30 12:37:28;;;;;;;22.27;5.03;;;;;;;18.71;39.10;102913.88;4992072;28;20033;-59
2022/01/30 12:39:55;;;;;;;21.60;5.00;;;;;;;18.72;51.30;102904.72;4984255;28;20106;-59
2022/01/30 12:42:24;;;;;;;31.63;5.27;;;;;;;18.85;41.79;102911.22;4992516;28;20034;-59
2022/01/30 12:44:49;;;;;;;24.37;4.97;;;;;;;18.44;38.27;102908.28;4992498;28;20336;-59